AirNav   Air Wisconsin pilot careers
 
 975 users online  

OG46 Tuality Hospital Heliport
Hillsboro, Oregon, USA

GOING TO HILLSBORO?


FAA INFORMATION EFFECTIVE 03 JANUARY 2019

Location

FAA Identifier: OG46
Lat/Long: 45-31-10.9700N / 122-58-47.2400W
45-31.182833N / 122-58.787333W
45.5197139 / -122.9797889
(estimated)
Elevation: 260 ft. / 79 m (estimated)
Time zone: UTC -8 (UTC -7 during Daylight Saving Time)
Zip code: 97124

Heliport Operations

Heliport use: Private use. Permission required prior to landing
Activation date: 08/2004
Control tower: no
ARTCC: SEATTLE CENTER
FSS: MC MINNVILLE FLIGHT SERVICE STATION
Attendance: UNATNDD
Segmented circle: no
Lights: ACTVT PERIMETER LGTS CALL 503-681-1087.
Beacon: white-green-yellow (heliport)
ACTVT ROTG BCN CALL 503-681-1087.

Heliport Communications

UNICOM: 123.075
WX ASOS at HIO (1.8 nm NE): PHONE 503-640-2984
WX ASOS at VUO (15 nm NE): 135.125 (360-696-1280)
WX ASOS at SPB (16 nm N): 135.875 (503-543-6401)
WX ASOS at PDX (17 nm E): PHONE (503) 493-7687
WX ASOS at UAO (19 nm SE): PHONE 503-678-3011

Nearby radio navigation aids

VOR radial/distance  VOR name  Freq  Var
UBGr339/10.0NEWBERG VOR/DME117.4021E
BTGr209/21.3BATTLE GROUND VORTAC116.6021E

 
NDB name  Hdg/Dist  Freq  Var  ID
BANKS141/7.235616EPND .--. -. -..
KELSO167/38.325617ELSO .-.. ... ---

Heliport Services

Runway Information

Helipad H1

Dimensions: 80 x 70 ft. / 24 x 21 m
Surface: concrete
Runway edge lights: PERI
Latitude: 45-31.182833N
Longitude: 122-58.787333W
Elevation: 260.0 ft.
Traffic pattern: leftleft
Markings: basic

Heliport Ownership and Management from official FAA records

Ownership: Privately-owned
Owner: STEVE KRAUTSCHEID
335 SE 8TH AVE
HILLSBORO, OR 97123
Phone 503-681-1087
Manager: STEVE KRAUTSCHEID
335 SE 8TH AVE
HILLSBORO, OR 97123
Phone 503-681-1087

Additional Remarks

FOR CD CTC PORTLAND APCH AT 503-493-7545.

Instrument Procedures

There are no published instrument procedures at OG46.

Some nearby airports with instrument procedures:

KHIO - Portland-Hillsboro Airport (2 nm NE)
KVUO - Pearson Field Airport (15 nm NE)
KSPB - Scappoose Industrial Airpark (16 nm N)
KPDX - Portland International Airport (17 nm E)
KUAO - Aurora State Airport (19 nm SE)
 
Loc | Ops | Rwys | IFR | FBO | Links
Com | Nav | Svcs | Stats | Notes
Area around OG46 (Tuality Hospital Heliport)
 
Road maps at: MapQuest Bing Google
 
Aerial photo
No photo
 
Sectional chart

 
Airport distance calculator
Flying to Tuality Hospital Heliport? Find the distance to fly.

From to OG46

Sunrise and sunset
Times for 21-Jan-2019
 Local
(UTC-8)
 Zulu
(UTC)
Morning civil twilight07:1315:13
Sunrise07:4515:45
Sunset17:0201:02
Evening civil twilight17:3401:34

Current date and time
Zulu (UTC)  22-Jan-2019 01:30:36
Local (UTC-8)  21-Jan-2019 17:30:36
 
METAR
KHIO 
2nm NE 
220053Z 00000KT 10SM FEW020 SCT035 BKN050 08/04 A3041 RMK AO2 SLP300 T00780044 $
KVUO 
15nm NE 
220053Z AUTO 11004KT 10SM -RA FEW020 BKN033 OVC048 08/05 A3043 RMK AO2 RAB47 SLP303 P0000 T00830050
KSPB 
16nm N 
220053Z AUTO 00000KT 6SM BR FEW038 SCT050 06/04 A3042 RMK AO2 SLP301 T00610039
KPDX 
16nm E 
220053Z 13003KT 10SM FEW020 BKN037 BKN044 08/04 A3043 RMK AO2 SLP305 T00830044 $
KUAO 
19nm SE 
220053Z 19003KT 10SM FEW041 SCT070 07/04 A3042 RMK AO2 SLP297 T00720039 $
TAF
KHIO 
2nm NE 
212034Z 2121/2218 09003KT P6SM SCT007 BKN035 FM212200 VRB03KT P6SM SCT018 FM221100 12005KT P6SM -RA SCT030 OVC040
KPDX 
16nm E 
212013Z 2120/2218 08006KT P6SM FEW012 BKN060 FM212100 23004KT P6SM SCT020 FM220600 15004KT P6SM OVC035 FM221200 12012KT P6SM -RA SCT030 OVC050
KUAO 
19nm SE 
212246Z 2123/2218 22004KT P6SM SCT015 BKN035 FM220300 19003KT P6SM SCT040 FM221500 18005KT P6SM -RA OVC050
NOTAMs
Click for the latest NOTAMs
NOTAMs are issued by the DoD/FAA and will open in a separate window not controlled by AirNav.

 

 
 

Would you like to see your business listed on this page?

 If your business provides an interesting product or service to pilots, flight crews, aircraft, or users of the Tuality Hospital Heliport, you should consider listing it here.  To start the listing process, click on the button below
 
Add a business
 

Other Pages about Tuality Hospital Heliport

Update a link
 
Copyright © AirNav, LLC. All rights reserved. Privacy Policy  Contact